createdAt,value
2018-01-10T00:01:34.253Z,95.12
2018-01-10T00:03:36.038Z,95.22
2018-01-10T00:05:37.679Z,95.22
2018-01-10T00:07:39.356Z,95.03
2018-01-10T00:09:41.066Z,95.12
2018-01-10T00:11:42.798Z,94.84
2018-01-10T00:13:44.461Z,95.51
2018-01-10T00:15:46.176Z,95.51
2018-01-10T00:17:47.843Z,95.79
2018-01-10T00:19:49.441Z,96.17
2018-01-10T00:21:51.164Z,96.45
2018-01-10T00:23:52.853Z,97.41
2018-01-10T00:25:54.542Z,97.02
2018-01-10T00:27:56.068Z,97.78
2018-01-10T00:29:57.737Z,98.35
2018-01-10T00:31:59.452Z,98.35
2018-01-10T00:34:01.098Z,98.64
2018-01-10T00:36:02.885Z,99.40
2018-01-10T00:38:04.616Z,99.68
2018-01-10T00:40:06.382Z,99.87
2018-01-10T00:42:08.137Z,99.77
2018-01-10T00:44:09.809Z,99.68
2018-01-10T00:46:11.512Z,99.44
2018-01-10T00:48:13.323Z,98.50
2018-01-10T00:50:15.090Z,98.45
2018-01-10T00:52:16.913Z,99.44
2018-01-10T00:54:18.700Z,98.59
2018-01-10T00:56:20.357Z,98.40
2018-01-10T00:58:22.022Z,97.83
2018-01-10T01:00:23.723Z,98.02
2018-01-10T01:02:25.411Z,97.83
2018-01-10T01:04:27.083Z,98.31
2018-01-10T01:06:28.774Z,98.69
2018-01-10T01:08:30.540Z,98.40
2018-01-10T01:10:32.362Z,98.02
2018-01-10T01:12:34.065Z,98.50
2018-01-10T01:14:35.750Z,98.40
2018-01-10T01:16:37.460Z,98.40
2018-01-10T01:18:38.992Z,98.21
2018-01-10T01:20:40.706Z,98.31
2018-01-10T01:22:42.420Z,98.31
2018-01-10T01:24:44.132Z,98.31
2018-01-10T01:26:45.754Z,97.64
2018-01-10T01:28:47.442Z,97.83
2018-01-10T01:30:49.001Z,97.45
2018-01-10T01:32:50.771Z,96.69
2018-01-10T01:34:52.449Z,97.74
2018-01-10T01:36:54.164Z,97.55
2018-01-10T01:38:55.887Z,97.36
2018-01-10T01:40:57.545Z,97.64
2018-01-10T01:42:59.266Z,98.12
2018-01-10T01:45:00.996Z,97.83
2018-01-10T01:47:02.714Z,97.83
2018-01-10T01:49:04.414Z,97.64
2018-01-10T01:51:06.075Z,97.50
2018-01-10T01:53:07.711Z,97.55
2018-01-10T01:55:09.459Z,97.83
2018-01-10T01:57:11.188Z,97.83
2018-01-10T01:59:12.871Z,97.83
2018-01-10T02:01:14.533Z,97.78
2018-01-10T02:03:15.939Z,97.60
2018-01-10T02:05:17.372Z,97.55
2018-01-10T02:07:18.820Z,98.40
2018-01-10T02:09:20.239Z,98.31
2018-01-10T02:11:21.707Z,98.40
2018-01-10T02:13:23.117Z,98.69
2018-01-10T02:15:24.566Z,98.50
2018-01-10T02:17:26.043Z,98.02
2018-01-10T02:19:27.454Z,98.64
2018-01-10T02:21:28.858Z,97.88
2018-01-10T02:23:30.277Z,96.74
2018-01-10T02:25:31.710Z,97.12
2018-01-10T02:27:33.162Z,96.93
2018-01-10T02:29:34.605Z,96.55
2018-01-10T02:31:36.026Z,96.93
2018-01-10T02:33:37.436Z,96.36
2018-01-10T02:35:38.842Z,96.65
2018-01-10T02:37:40.273Z,96.93
2018-01-10T02:39:41.706Z,97.12
2018-01-10T02:41:43.136Z,96.84
2018-01-10T02:43:44.581Z,96.65
2018-01-10T02:45:45.976Z,97.31
2018-01-10T02:47:47.469Z,96.84
2018-01-10T02:49:48.928Z,97.31
2018-01-10T02:51:50.426Z,96.93
2018-01-10T02:53:51.871Z,96.55
2018-01-10T02:55:53.282Z,96.65
2018-01-10T02:57:54.778Z,96.55
2018-01-10T02:59:56.176Z,96.93
2018-01-10T03:01:57.641Z,97.03
2018-01-10T03:03:59.130Z,97.88
2018-01-10T03:06:00.603Z,97.78
2018-01-10T03:08:02.034Z,97.50
2018-01-10T03:10:03.450Z,97.50
2018-01-10T03:12:04.930Z,97.69
2018-01-10T03:14:06.401Z,98.07
2018-01-10T03:16:07.812Z,97.69
2018-01-10T03:18:09.246Z,97.88
2018-01-10T03:20:10.656Z,97.69
2018-01-10T03:22:12.074Z,97.69
2018-01-10T03:24:13.490Z,98.07
2018-01-10T03:26:14.915Z,97.97
2018-01-10T03:28:16.381Z,97.69
2018-01-10T03:30:17.801Z,97.97
2018-01-10T03:32:19.263Z,98.55
2018-01-10T03:34:20.689Z,98.36
2018-01-10T03:36:22.142Z,98.45
2018-01-10T03:38:23.586Z,98.45
2018-01-10T03:40:25.057Z,97.88
2018-01-10T03:42:26.549Z,98.55
2018-01-10T03:44:28.010Z,98.74
2018-01-10T03:46:29.466Z,98.07
2018-01-10T03:48:30.937Z,98.55
2018-01-10T03:50:32.351Z,97.97
2018-01-10T03:52:33.750Z,98.26
2018-01-10T03:54:35.168Z,98.45
2018-01-10T03:56:36.578Z,98.45
2018-01-10T03:58:38.050Z,98.36
2018-01-10T04:00:39.494Z,98.26
2018-01-10T04:02:40.937Z,98.17
2018-01-10T04:04:42.348Z,98.55
2018-01-10T04:06:43.761Z,98.55
2018-01-10T04:08:45.209Z,98.74
2018-01-10T04:10:46.614Z,98.64
2018-01-10T04:12:48.022Z,98.74
2018-01-10T04:14:49.498Z,98.45
2018-01-10T04:16:50.926Z,98.45
2018-01-10T04:18:52.385Z,98.36
2018-01-10T04:20:53.845Z,98.36
2018-01-10T04:22:55.555Z,98.45
2018-01-10T04:24:57.360Z,98.83
2018-01-10T04:26:59.043Z,98.83
2018-01-10T04:29:00.696Z,97.88
2018-01-10T04:31:02.364Z,97.88
2018-01-10T04:33:04.033Z,97.88
2018-01-10T04:35:05.688Z,97.50
2018-01-10T04:37:07.408Z,98.55
2018-01-10T04:39:09.123Z,98.55
2018-01-10T04:41:10.823Z,98.07
2018-01-10T04:43:12.562Z,98.55
2018-01-10T04:45:14.270Z,98.74
2018-01-10T04:47:16.040Z,98.55
2018-01-10T04:49:17.762Z,99.97
2018-01-10T04:51:19.526Z,99.50
2018-01-10T04:53:21.328Z,99.97
2018-01-10T04:55:23.009Z,99.88
2018-01-10T04:57:24.718Z,99.59
2018-01-10T04:59:26.382Z,99.97
2018-01-10T05:01:28.246Z,99.11
2018-01-10T05:03:29.920Z,99.11
2018-01-10T05:05:31.739Z,99.99
2018-01-10T05:07:33.418Z,99.99
2018-01-10T05:09:35.028Z,99.99
2018-01-10T05:11:36.758Z,99.99
2018-01-10T05:13:38.482Z,99.99
2018-01-10T05:15:40.252Z,99.99
2018-01-10T05:17:42.021Z,99.99
2018-01-10T05:19:43.692Z,99.99
2018-01-10T05:21:46.189Z,99.99
2018-01-10T05:23:47.849Z,99.99
2018-01-10T05:25:49.658Z,99.99
2018-01-10T05:27:51.384Z,99.99
2018-01-10T05:29:53.133Z,99.99
2018-01-10T05:31:54.631Z,99.99
2018-01-10T05:33:56.328Z,99.99
2018-01-10T05:35:57.963Z,99.99
2018-01-10T05:37:59.800Z,99.99
2018-01-10T05:40:01.555Z,99.99
2018-01-10T05:42:03.207Z,99.99
2018-01-10T05:44:04.814Z,99.99
2018-01-10T05:46:06.518Z,99.84
2018-01-10T05:48:08.186Z,99.99
2018-01-10T05:50:09.896Z,99.97
2018-01-10T05:52:11.548Z,99.99
2018-01-10T05:54:13.271Z,99.99
2018-01-10T05:56:15.047Z,99.64
2018-01-10T05:58:16.839Z,98.97
2018-01-10T06:00:18.511Z,98.60
2018-01-10T06:02:20.272Z,98.60
2018-01-10T06:04:21.898Z,98.03
2018-01-10T06:06:23.618Z,97.64
2018-01-10T06:08:25.364Z,97.74
2018-01-10T06:10:27.024Z,97.64
2018-01-10T06:12:28.618Z,97.55
2018-01-10T06:14:30.306Z,96.89
2018-01-10T06:16:32.121Z,96.89
2018-01-10T06:18:33.853Z,97.17
2018-01-10T06:20:35.496Z,96.79
2018-01-10T06:22:37.216Z,96.89
2018-01-10T06:24:38.963Z,96.50
2018-01-10T06:26:40.668Z,96.60
2018-01-10T06:28:42.412Z,97.08
2018-01-10T06:30:44.117Z,96.41
2018-01-10T06:32:45.868Z,96.60
2018-01-10T06:34:47.597Z,96.60
2018-01-10T06:36:49.400Z,97.55
2018-01-10T06:38:51.122Z,96.89
2018-01-10T06:40:52.787Z,96.98
2018-01-10T06:42:54.553Z,96.89
2018-01-10T06:44:56.295Z,96.79
2018-01-10T06:46:58.037Z,96.60
2018-01-10T06:48:59.713Z,96.89
2018-01-10T06:51:01.465Z,96.69
2018-01-10T06:53:03.167Z,95.94
2018-01-10T06:55:04.896Z,96.12
2018-01-10T06:57:06.551Z,95.75
2018-01-10T06:59:08.220Z,96.03
2018-01-10T07:01:09.817Z,95.65
2018-01-10T07:03:11.502Z,95.84
2018-01-10T07:05:13.182Z,96.03
2018-01-10T07:07:14.918Z,95.84
2018-01-10T07:09:16.579Z,95.75
2018-01-10T07:11:18.277Z,95.94
2018-01-10T07:13:19.890Z,95.84
2018-01-10T07:15:21.624Z,95.65
2018-01-10T07:17:23.238Z,95.94
2018-01-10T07:19:24.992Z,95.75
2018-01-10T07:21:26.491Z,95.08
2018-01-10T07:23:28.014Z,95.84
2018-01-10T07:25:29.738Z,95.84
2018-01-10T07:27:31.445Z,95.84
2018-01-10T07:29:33.124Z,95.36
2018-01-10T07:31:34.859Z,95.36
2018-01-10T07:33:36.485Z,95.17
2018-01-10T07:35:38.144Z,95.27
2018-01-10T07:37:39.871Z,95.46
2018-01-10T07:39:41.521Z,95.08
2018-01-10T07:41:43.308Z,95.27
2018-01-10T07:43:45.035Z,95.36
2018-01-10T07:45:46.790Z,94.42
2018-01-10T07:47:48.587Z,94.51
2018-01-10T07:49:50.271Z,94.42
2018-01-10T07:51:51.988Z,94.42
2018-01-10T07:53:53.640Z,95.08
2018-01-10T07:55:55.364Z,94.60
2018-01-10T07:57:57.037Z,94.32
2018-01-10T07:59:58.858Z,94.42
2018-01-10T08:02:00.567Z,94.51
2018-01-10T08:04:02.182Z,94.22
2018-01-10T08:06:03.944Z,95.17
2018-01-10T08:08:05.657Z,95.56
2018-01-10T08:10:07.350Z,95.27
2018-01-10T08:12:09.014Z,95.36
2018-01-10T08:14:10.842Z,94.60
2018-01-10T08:16:12.614Z,95.27
2018-01-10T08:18:14.470Z,95.17
2018-01-10T08:20:16.329Z,95.08
2018-01-10T08:22:18.062Z,95.17
2018-01-10T08:24:19.769Z,95.36
2018-01-10T08:26:21.549Z,95.84
2018-01-10T08:28:23.012Z,95.56
2018-01-10T08:30:24.687Z,95.08
2018-01-10T08:32:26.388Z,95.36
2018-01-10T08:34:28.139Z,95.36
2018-01-10T08:36:29.615Z,95.36
2018-01-10T08:38:31.072Z,95.36
2018-01-10T08:40:32.439Z,95.36
2018-01-10T08:42:33.854Z,95.08
2018-01-10T08:44:35.262Z,95.36
2018-01-10T08:46:36.695Z,94.98
2018-01-10T08:48:38.111Z,95.17
2018-01-10T08:50:39.541Z,95.36
2018-01-10T08:52:40.951Z,95.41
2018-01-10T08:54:42.366Z,95.27
2018-01-10T08:56:43.779Z,95.27
2018-01-10T08:58:45.185Z,95.08
2018-01-10T09:00:46.618Z,95.94
2018-01-10T09:02:48.039Z,95.41
2018-01-10T09:04:49.451Z,95.70
2018-01-10T09:06:50.864Z,94.79
2018-01-10T09:08:52.275Z,95.32
2018-01-10T09:10:53.689Z,95.41
2018-01-10T09:12:55.102Z,95.41
2018-01-10T09:14:56.516Z,95.51
2018-01-10T09:16:57.929Z,95.41
2018-01-10T09:18:59.339Z,95.41
2018-01-10T09:21:00.757Z,95.79
2018-01-10T09:23:02.168Z,95.98
2018-01-10T09:25:03.586Z,96.26
2018-01-10T09:27:04.998Z,96.94
2018-01-10T09:29:06.411Z,97.41
2018-01-10T09:31:07.826Z,97.74
2018-01-10T09:33:09.241Z,97.83
2018-01-10T09:35:10.652Z,97.93
2018-01-10T09:37:12.160Z,97.60
2018-01-10T09:39:13.553Z,97.60
2018-01-10T09:41:15.041Z,97.41
2018-01-10T09:43:16.434Z,97.50
2018-01-10T09:45:17.959Z,97.03
2018-01-10T09:47:19.349Z,98.08
2018-01-10T09:49:21.133Z,97.69
2018-01-10T09:51:22.880Z,97.50
2018-01-10T09:53:24.687Z,97.31
2018-01-10T09:55:26.735Z,97.31
2018-01-10T09:57:28.769Z,96.74
2018-01-10T09:59:30.341Z,96.94
2018-01-10T10:01:32.227Z,96.74
2018-01-10T10:03:33.843Z,96.08
2018-01-10T10:05:35.253Z,96.03
2018-01-10T10:07:36.667Z,95.84
2018-01-10T10:09:38.077Z,95.70
2018-01-10T10:11:39.496Z,95.79
2018-01-10T10:13:40.907Z,95.70
2018-01-10T10:15:42.319Z,95.79
2018-01-10T10:17:43.738Z,95.51
2018-01-10T10:19:45.147Z,96.08
2018-01-10T10:21:46.561Z,96.94
2018-01-10T10:23:47.972Z,96.84
2018-01-10T10:25:49.385Z,96.94
2018-01-10T10:27:50.801Z,96.74
2018-01-10T10:29:52.215Z,97.31
2018-01-10T10:31:53.678Z,96.65
2018-01-10T10:33:55.088Z,96.74
2018-01-10T10:35:56.495Z,97.13
2018-01-10T10:37:57.963Z,96.84
2018-01-10T10:39:59.322Z,96.26
2018-01-10T10:42:00.735Z,96.74
2018-01-10T10:44:02.148Z,97.31
2018-01-10T10:46:03.606Z,96.55
2018-01-10T10:48:04.977Z,96.17
2018-01-10T10:50:06.388Z,96.65
2018-01-10T10:52:07.802Z,96.65
2018-01-10T10:54:09.214Z,96.94
2018-01-10T10:56:10.631Z,96.65
2018-01-10T10:58:12.043Z,96.74
2018-01-10T11:00:13.453Z,96.55
2018-01-10T11:02:14.911Z,96.74
2018-01-10T11:04:16.320Z,96.65
2018-01-10T11:06:17.739Z,96.17
2018-01-10T11:08:19.142Z,96.08
2018-01-10T11:10:20.564Z,96.51
2018-01-10T11:12:21.974Z,96.26
2018-01-10T11:14:23.388Z,96.08
2018-01-10T11:16:24.802Z,95.98
2018-01-10T11:18:26.214Z,95.89
2018-01-10T11:20:27.725Z,97.13
2018-01-10T11:22:29.238Z,96.94
2018-01-10T11:24:31.064Z,96.74
2018-01-10T11:26:32.482Z,97.03
2018-01-10T11:28:33.893Z,96.79
2018-01-10T11:30:35.307Z,96.26
2018-01-10T11:32:36.717Z,96.74
2018-01-10T11:34:38.134Z,96.74
2018-01-10T11:36:39.547Z,96.94
2018-01-10T11:38:40.961Z,96.55
2018-01-10T11:40:42.369Z,96.12
2018-01-10T11:42:43.785Z,95.65
2018-01-10T11:44:45.198Z,96.31
2018-01-10T11:46:46.612Z,96.03
2018-01-10T11:48:48.029Z,95.75
2018-01-10T11:50:49.446Z,95.27
2018-01-10T11:52:50.858Z,95.36
2018-01-10T11:54:52.278Z,94.42
2018-01-10T11:56:53.687Z,93.74
2018-01-10T11:58:55.101Z,93.74
2018-01-10T12:00:56.517Z,92.99
2018-01-10T12:02:57.929Z,93.55
2018-01-10T12:04:59.397Z,93.27
2018-01-10T12:07:00.838Z,92.84
2018-01-10T12:09:02.251Z,92.36
2018-01-10T12:11:03.668Z,91.89
2018-01-10T12:13:05.088Z,91.99
2018-01-10T12:15:06.506Z,91.22
2018-01-10T12:17:07.921Z,91.99
2018-01-10T12:19:09.339Z,91.89
2018-01-10T12:21:10.758Z,91.60
2018-01-10T12:23:12.174Z,91.27
2018-01-10T12:25:13.597Z,90.22
2018-01-10T12:27:15.012Z,90.70
2018-01-10T12:29:16.436Z,90.31
2018-01-10T12:31:17.850Z,90.41
2018-01-10T12:33:19.267Z,89.55
2018-01-10T12:35:20.689Z,89.07
2018-01-10T12:37:22.104Z,88.31
2018-01-10T12:39:23.521Z,88.51
2018-01-10T12:41:24.944Z,87.74
2018-01-10T12:43:26.368Z,87.65
2018-01-10T12:45:27.800Z,87.74
2018-01-10T12:47:29.214Z,87.65
2018-01-10T12:49:30.631Z,87.51
2018-01-10T12:51:32.046Z,87.79
2018-01-10T12:53:33.462Z,87.70
2018-01-10T12:55:34.878Z,87.84
2018-01-10T12:57:36.296Z,87.93
2018-01-10T12:59:37.712Z,88.03
2018-01-10T13:01:39.160Z,87.65
2018-01-10T13:03:40.547Z,87.93
2018-01-10T13:05:41.963Z,86.41
2018-01-10T13:07:43.381Z,87.36
2018-01-10T13:09:44.796Z,86.60
2018-01-10T13:11:46.229Z,86.88
2018-01-10T13:13:47.633Z,86.79
2018-01-10T13:15:49.046Z,86.69
2018-01-10T13:17:50.477Z,86.51
2018-01-10T13:19:51.903Z,86.69
2018-01-10T13:21:53.295Z,86.88
2018-01-10T13:23:54.716Z,86.69
2018-01-10T13:25:56.133Z,86.32
2018-01-10T13:27:57.550Z,86.41
2018-01-10T13:29:58.963Z,85.74
2018-01-10T13:32:00.393Z,85.36
2018-01-10T13:34:01.800Z,85.08
2018-01-10T13:36:03.212Z,85.08
2018-01-10T13:38:04.628Z,84.60
2018-01-10T13:40:06.047Z,85.17
2018-01-10T13:42:07.468Z,84.88
2018-01-10T13:44:08.883Z,84.98
2018-01-10T13:46:10.304Z,84.41
2018-01-10T13:48:11.714Z,84.50
2018-01-10T13:50:13.129Z,84.17
2018-01-10T13:52:14.548Z,83.32
2018-01-10T13:54:15.981Z,83.41
2018-01-10T13:56:17.396Z,83.70
2018-01-10T13:58:18.813Z,83.32
2018-01-10T14:00:20.238Z,83.32
2018-01-10T14:02:21.656Z,83.32
2018-01-10T14:04:23.104Z,83.22
2018-01-10T14:06:24.528Z,83.61
2018-01-10T14:08:25.952Z,84.08
2018-01-10T14:10:27.384Z,84.08
2018-01-10T14:12:28.795Z,83.22
2018-01-10T14:14:30.212Z,83.74
2018-01-10T14:16:31.624Z,83.61
2018-01-10T14:18:33.043Z,83.98
2018-01-10T14:20:34.461Z,83.80
2018-01-10T14:22:35.873Z,83.45
2018-01-10T14:24:37.289Z,83.98
2018-01-10T14:26:38.704Z,84.27
2018-01-10T14:28:40.121Z,83.51
2018-01-10T14:30:41.538Z,83.17
2018-01-10T14:32:42.952Z,83.26
2018-01-10T14:34:44.369Z,83.26
2018-01-10T14:36:45.782Z,82.50
2018-01-10T14:38:47.197Z,83.26
2018-01-10T14:40:48.616Z,83.17
2018-01-10T14:42:50.239Z,82.89
2018-01-10T14:44:51.675Z,82.50
2018-01-10T14:46:53.088Z,82.89
2018-01-10T14:48:54.505Z,82.89
2018-01-10T14:50:55.920Z,82.79
2018-01-10T14:52:57.357Z,82.69
2018-01-10T14:54:58.769Z,82.12
2018-01-10T14:57:00.186Z,82.31
2018-01-10T14:59:01.603Z,82.41
2018-01-10T15:01:03.018Z,82.12
2018-01-10T15:03:04.433Z,82.03
2018-01-10T15:05:05.851Z,82.21
2018-01-10T15:07:07.266Z,82.03
2018-01-10T15:09:08.681Z,82.21
2018-01-10T15:11:10.099Z,82.21
2018-01-10T15:13:11.512Z,82.12
2018-01-10T15:15:12.926Z,82.12
2018-01-10T15:17:14.342Z,82.21
2018-01-10T15:19:15.754Z,82.31
2018-01-10T15:21:17.171Z,82.21
2018-01-10T15:23:18.584Z,82.31
2018-01-10T15:25:20.000Z,82.12
2018-01-10T15:27:21.415Z,82.41
2018-01-10T15:29:22.827Z,82.21
2018-01-10T15:31:24.242Z,82.31
2018-01-10T15:33:25.656Z,82.89
2018-01-10T15:35:27.068Z,83.17
2018-01-10T15:37:28.481Z,82.41
2018-01-10T15:39:29.894Z,82.12
2018-01-10T15:41:31.307Z,82.21
2018-01-10T15:43:32.720Z,82.12
2018-01-10T15:45:34.134Z,82.21
2018-01-10T15:47:35.546Z,81.74
2018-01-10T15:49:36.962Z,82.21
2018-01-10T15:51:38.377Z,82.41
2018-01-10T15:53:39.790Z,82.31
2018-01-10T15:55:41.203Z,82.21
2018-01-10T15:57:42.617Z,82.03
2018-01-10T15:59:44.030Z,81.93
2018-01-10T16:01:45.444Z,82.21
2018-01-10T16:03:46.859Z,81.55
2018-01-10T16:05:48.275Z,82.21
2018-01-10T16:07:49.688Z,81.74
2018-01-10T16:09:51.102Z,82.31
2018-01-10T16:11:52.520Z,82.21
2018-01-10T16:13:53.932Z,82.12
2018-01-10T16:15:55.364Z,82.21
2018-01-10T16:17:56.820Z,82.03
2018-01-10T16:19:58.263Z,82.69
2018-01-10T16:21:59.681Z,82.89
2018-01-10T16:24:01.100Z,82.89
2018-01-10T16:26:02.524Z,83.36
2018-01-10T16:28:03.937Z,83.17
2018-01-10T16:30:05.348Z,83.45
2018-01-10T16:32:06.761Z,83.36
2018-01-10T16:34:08.183Z,83.07
2018-01-10T16:36:09.588Z,82.89
2018-01-10T16:38:11.006Z,83.26
2018-01-10T16:40:12.486Z,83.07
2018-01-10T16:42:13.906Z,83.36
2018-01-10T16:44:15.330Z,83.36
2018-01-10T16:46:16.738Z,83.55
2018-01-10T16:48:18.152Z,83.07
2018-01-10T16:50:19.568Z,83.36
2018-01-10T16:52:21.013Z,83.07
2018-01-10T16:54:22.427Z,82.98
2018-01-10T16:56:23.841Z,82.98
2018-01-10T16:58:25.254Z,83.26
2018-01-10T17:00:26.669Z,83.45
2018-01-10T17:02:28.079Z,83.26
2018-01-10T17:04:29.497Z,83.65
2018-01-10T17:06:30.909Z,83.74
2018-01-10T17:08:32.322Z,83.36
2018-01-10T17:10:33.736Z,83.17
2018-01-10T17:12:35.149Z,82.79
2018-01-10T17:14:36.562Z,82.79
2018-01-10T17:16:37.975Z,82.89
2018-01-10T17:18:39.398Z,82.79
2018-01-10T17:20:40.892Z,82.12
2018-01-10T17:22:42.325Z,82.31
2018-01-10T17:24:43.768Z,82.65
2018-01-10T17:26:45.308Z,82.75
2018-01-10T17:28:46.752Z,83.03
2018-01-10T17:30:48.613Z,82.75
2018-01-10T17:32:50.224Z,83.03
2018-01-10T17:34:51.796Z,83.03
2018-01-10T17:36:53.451Z,83.51
2018-01-10T17:38:55.113Z,83.22
2018-01-10T17:40:56.511Z,83.22
2018-01-10T17:42:57.927Z,83.32
2018-01-10T17:44:59.340Z,83.32
2018-01-10T17:47:00.790Z,83.32
2018-01-10T17:49:02.199Z,82.70
2018-01-10T17:51:03.611Z,83.03
2018-01-10T17:53:05.022Z,83.03
2018-01-10T17:55:06.440Z,82.65
2018-01-10T17:57:07.853Z,82.37
2018-01-10T17:59:09.265Z,82.27
2018-01-10T18:01:10.681Z,82.46
2018-01-10T18:03:12.093Z,82.27
2018-01-10T18:05:13.504Z,82.90
2018-01-10T18:07:14.915Z,82.99
2018-01-10T18:09:16.323Z,83.09
2018-01-10T18:11:17.734Z,83.37
2018-01-10T18:13:19.150Z,83.65
2018-01-10T18:15:20.558Z,83.28
2018-01-10T18:17:21.979Z,84.23
2018-01-10T18:19:23.388Z,83.75
2018-01-10T18:21:24.801Z,83.37
2018-01-10T18:23:26.214Z,83.47
2018-01-10T18:25:27.628Z,83.65
2018-01-10T18:27:29.038Z,83.47
2018-01-10T18:29:30.451Z,83.65
2018-01-10T18:31:31.892Z,83.94
2018-01-10T18:33:33.362Z,83.56
2018-01-10T18:35:35.023Z,82.80
2018-01-10T18:37:36.463Z,82.80
2018-01-10T18:39:37.884Z,82.04
2018-01-10T18:41:39.301Z,82.23
2018-01-10T18:43:40.706Z,81.66
2018-01-10T18:45:42.127Z,81.66
2018-01-10T18:47:43.538Z,81.85
2018-01-10T18:49:44.954Z,81.47
2018-01-10T18:51:46.379Z,81.09
2018-01-10T18:53:47.782Z,80.99
2018-01-10T18:55:49.192Z,81.28
2018-01-10T18:57:50.607Z,81.18
2018-01-10T18:59:52.018Z,80.42
2018-01-10T19:01:53.426Z,81.09
2018-01-10T19:03:54.838Z,81.09
2018-01-10T19:05:56.245Z,81.18
2018-01-10T19:07:57.653Z,81.28
2018-01-10T19:09:59.068Z,81.09
2018-01-10T19:12:00.467Z,81.56
2018-01-10T19:14:01.890Z,81.09
2018-01-10T19:16:03.301Z,81.18
2018-01-10T19:18:04.717Z,81.18
2018-01-10T19:20:06.125Z,81.18
2018-01-10T19:22:07.622Z,81.28
2018-01-10T19:24:09.034Z,80.71
2018-01-10T19:26:10.447Z,80.99
2018-01-10T19:28:11.856Z,81.09
2018-01-10T19:30:13.264Z,81.37
2018-01-10T19:32:14.693Z,81.66
2018-01-10T19:34:16.094Z,81.76
2018-01-10T19:36:17.505Z,81.85
2018-01-10T19:38:18.915Z,81.56
2018-01-10T19:40:20.326Z,81.37
2018-01-10T19:42:21.738Z,81.28
2018-01-10T19:44:23.149Z,81.18
2018-01-10T19:46:24.561Z,81.76
2018-01-10T19:48:25.972Z,81.66
2018-01-10T19:50:27.383Z,81.76
2018-01-10T19:52:28.796Z,81.71
2018-01-10T19:54:30.204Z,81.71
2018-01-10T19:56:31.612Z,81.62
2018-01-10T19:58:33.024Z,82.19
2018-01-10T20:00:34.450Z,82.09
2018-01-10T20:02:35.860Z,82.00
2018-01-10T20:04:37.258Z,82.48
2018-01-10T20:06:38.665Z,82.38
2018-01-10T20:08:40.077Z,82.09
2018-01-10T20:10:41.484Z,82.57
2018-01-10T20:12:42.902Z,82.48
2018-01-10T20:14:44.312Z,82.57
2018-01-10T20:16:45.726Z,82.76
2018-01-10T20:18:47.132Z,83.23
2018-01-10T20:20:48.547Z,83.19
2018-01-10T20:22:49.959Z,83.19
2018-01-10T20:24:51.370Z,84.00
2018-01-10T20:26:52.781Z,83.48
2018-01-10T20:28:54.192Z,83.48
2018-01-10T20:30:55.603Z,83.76
2018-01-10T20:32:57.013Z,83.86
2018-01-10T20:34:58.424Z,84.14
2018-01-10T20:36:59.838Z,84.52
2018-01-10T20:39:01.248Z,84.62
2018-01-10T20:41:02.661Z,84.24
2018-01-10T20:43:04.069Z,84.14
2018-01-10T20:45:05.483Z,83.86
2018-01-10T20:47:06.888Z,84.33
2018-01-10T20:49:08.299Z,84.05
2018-01-10T20:51:09.707Z,84.24
2018-01-10T20:53:11.115Z,83.76
2018-01-10T20:55:12.525Z,83.76
2018-01-10T20:57:13.934Z,84.24
2018-01-10T20:59:15.348Z,84.43
2018-01-10T21:01:16.760Z,84.62
2018-01-10T21:03:18.161Z,84.52
2018-01-10T21:05:19.578Z,84.14
2018-01-10T21:07:20.990Z,84.24
2018-01-10T21:09:22.398Z,84.43
2018-01-10T21:11:23.808Z,84.33
2018-01-10T21:13:25.217Z,85.00
2018-01-10T21:15:26.626Z,84.33
2018-01-10T21:17:28.037Z,84.81
2018-01-10T21:19:29.448Z,84.62
2018-01-10T21:21:30.860Z,84.72
2018-01-10T21:23:32.272Z,84.62
2018-01-10T21:25:33.680Z,84.52
2018-01-10T21:27:35.089Z,84.85
2018-01-10T21:29:36.500Z,84.91
2018-01-10T21:31:37.908Z,84.91
2018-01-10T21:33:39.321Z,84.91
2018-01-10T21:35:40.731Z,85.14
2018-01-10T21:37:42.143Z,84.81
2018-01-10T21:39:43.552Z,84.95
2018-01-10T21:41:44.961Z,84.95
2018-01-10T21:43:46.397Z,84.85
2018-01-10T21:45:47.970Z,84.95
2018-01-10T21:47:49.607Z,84.95
2018-01-10T21:49:51.330Z,85.04
2018-01-10T21:51:53.060Z,84.95
2018-01-10T21:53:54.684Z,86.18
2018-01-10T21:55:56.107Z,85.42
2018-01-10T21:57:58.147Z,85.42
2018-01-10T21:59:59.598Z,85.42
2018-01-10T22:02:01.972Z,85.52
2018-01-10T22:04:03.720Z,85.42
2018-01-10T22:06:05.942Z,85.61
2018-01-10T22:08:08.011Z,85.52
2018-01-10T22:10:09.597Z,85.61
2018-01-10T22:12:11.350Z,85.04
2018-01-10T22:14:13.387Z,84.85
2018-01-10T22:16:16.267Z,85.24
2018-01-10T22:18:18.324Z,85.52
2018-01-10T22:20:19.955Z,85.52
2018-01-10T22:22:22.170Z,85.42
2018-01-10T22:24:25.185Z,85.61
2018-01-10T22:26:26.770Z,85.61
2018-01-10T22:28:28.731Z,85.61
2018-01-10T22:30:30.791Z,85.52
2018-01-10T22:32:32.832Z,85.14
2018-01-10T22:34:34.871Z,85.47
2018-01-10T22:36:36.479Z,85.10
2018-01-10T22:38:38.083Z,85.57
2018-01-10T22:40:39.714Z,84.81
2018-01-10T22:42:41.689Z,85.00
2018-01-10T22:44:43.465Z,84.91
2018-01-10T22:46:45.080Z,84.81
2018-01-10T22:48:47.098Z,84.81
2018-01-10T22:50:48.691Z,85.19
2018-01-10T22:52:50.675Z,85.10
2018-01-10T22:54:52.600Z,85.00
2018-01-10T22:56:54.203Z,85.38
2018-01-10T22:58:55.925Z,85.38
2018-01-10T23:00:57.885Z,85.10
2018-01-10T23:02:59.718Z,85.19
2018-01-10T23:05:01.499Z,85.47
2018-01-10T23:07:03.610Z,85.66
2018-01-10T23:09:05.246Z,85.47
2018-01-10T23:11:07.015Z,85.28
2018-01-10T23:13:08.785Z,86.05
2018-01-10T23:15:10.871Z,85.95
2018-01-10T23:17:12.508Z,85.95
2018-01-10T23:19:14.554Z,85.57
2018-01-10T23:21:16.302Z,85.95
2018-01-10T23:23:17.970Z,86.05
2018-01-10T23:25:19.585Z,85.57
2018-01-10T23:27:21.538Z,86.05
2018-01-10T23:29:23.713Z,86.05
2018-01-10T23:31:25.881Z,85.86
2018-01-10T23:33:27.744Z,86.05
2018-01-10T23:35:29.790Z,86.05
2018-01-10T23:37:31.428Z,85.95
2018-01-10T23:39:33.405Z,85.95
2018-01-10T23:41:35.577Z,86.24
2018-01-10T23:43:37.591Z,86.43
2018-01-10T23:45:39.433Z,86.24
2018-01-10T23:47:41.432Z,86.61
2018-01-10T23:49:42.958Z,86.52
2018-01-10T23:51:45.027Z,86.61
2018-01-10T23:53:46.674Z,86.43
2018-01-10T23:55:48.807Z,86.52
2018-01-10T23:57:50.887Z,86.43
2018-01-10T23:59:52.941Z,86.52
